createdAt,value
2023-01-09T00:01:20.611Z,8.70
2023-01-09T00:03:47.711Z,8.70
2023-01-09T00:06:14.605Z,8.70
2023-01-09T00:08:41.608Z,8.70
2023-01-09T00:11:08.762Z,8.70
2023-01-09T00:13:36.153Z,8.70
2023-01-09T00:16:05.429Z,8.70
2023-01-09T00:18:32.364Z,8.70
2023-01-09T00:21:04.848Z,8.70
2023-01-09T00:23:31.785Z,8.70
2023-01-09T00:26:07.450Z,8.70
2023-01-09T00:28:35.924Z,8.60
2023-01-09T00:31:05.298Z,8.70
2023-01-09T00:33:35.380Z,8.70
2023-01-09T00:36:02.836Z,8.70
2023-01-09T00:38:29.853Z,8.60
2023-01-09T00:40:57.200Z,8.60
2023-01-09T00:43:31.868Z,8.60
2023-01-09T00:46:00.956Z,8.60
2023-01-09T00:48:29.678Z,8.50
2023-01-09T00:50:59.649Z,8.60
2023-01-09T00:53:29.814Z,8.50
2023-01-09T00:56:01.390Z,8.50
2023-01-09T00:58:28.788Z,8.50
2023-01-09T01:00:56.294Z,8.50
2023-01-09T01:03:23.276Z,8.50
2023-01-09T01:06:08.587Z,8.50
2023-01-09T01:08:35.854Z,8.50
2023-01-09T01:11:09.286Z,8.50
2023-01-09T01:13:41.504Z,8.60
2023-01-09T01:16:11.017Z,8.50
2023-01-09T01:18:39.357Z,8.50
2023-01-09T01:21:11.390Z,8.60
2023-01-09T01:23:39.687Z,8.50
2023-01-09T01:26:14.500Z,8.50
2023-01-09T01:28:42.729Z,8.50
2023-01-09T01:31:15.302Z,8.40
2023-01-09T01:33:42.618Z,8.40
2023-01-09T01:36:09.758Z,8.30
2023-01-09T01:38:37.454Z,8.30
2023-01-09T01:41:05.261Z,8.30
2023-01-09T01:43:55.862Z,8.20
2023-01-09T01:46:23.386Z,8.20
2023-01-09T01:49:09.845Z,8.10
2023-01-09T01:51:47.387Z,8.10
2023-01-09T01:54:19.867Z,8.00
2023-01-09T01:56:50.579Z,8.00
2023-01-09T01:59:22.717Z,7.90
2023-01-09T02:01:53.292Z,7.90
2023-01-09T02:04:20.757Z,7.80
2023-01-09T02:06:50.873Z,7.70
2023-01-09T02:09:22.735Z,7.70
2023-01-09T02:11:54.374Z,7.60
2023-01-09T02:14:24.869Z,7.60
2023-01-09T02:16:59.532Z,7.60
2023-01-09T02:19:38.664Z,7.50
2023-01-09T02:22:14.482Z,7.40
2023-01-09T02:25:11.551Z,7.40
2023-01-09T02:28:23.533Z,7.30
2023-01-09T02:30:59.608Z,7.30
2023-01-09T02:33:26.496Z,7.30
2023-01-09T02:36:11.908Z,7.20
2023-01-09T02:38:53.941Z,7.10
2023-01-09T02:41:32.488Z,7.00
2023-01-09T02:44:22.049Z,7.00
2023-01-09T02:46:59.390Z,7.00
2023-01-09T02:49:27.870Z,6.90
2023-01-09T02:52:09.554Z,6.90
2023-01-09T02:55:02.674Z,6.80
2023-01-09T02:57:57.785Z,6.70
2023-01-09T03:00:50.189Z,6.70
2023-01-09T03:03:29.190Z,6.70
2023-01-09T03:06:03.361Z,6.70
2023-01-09T03:08:55.491Z,6.70
2023-01-09T03:11:22.827Z,6.80
2023-01-09T03:13:56.001Z,6.80
2023-01-09T03:16:33.811Z,6.80
2023-01-09T03:19:02.205Z,6.70
2023-01-09T03:21:30.334Z,6.70
2023-01-09T03:23:59.943Z,6.60
2023-01-09T03:26:29.377Z,6.60
2023-01-09T03:28:56.542Z,6.60
2023-01-09T03:31:23.554Z,6.60
2023-01-09T03:33:51.199Z,6.60
2023-01-09T03:36:20.167Z,6.50
2023-01-09T03:38:47.050Z,6.50
2023-01-09T03:41:14.653Z,6.50
2023-01-09T03:43:41.947Z,6.40
2023-01-09T03:46:09.582Z,6.40
2023-01-09T03:48:36.658Z,6.40
2023-01-09T03:51:03.933Z,6.30
2023-01-09T03:53:31.053Z,6.30
2023-01-09T03:55:59.324Z,6.30
2023-01-09T03:58:26.980Z,6.30
2023-01-09T04:01:03.150Z,6.20
2023-01-09T04:03:30.063Z,6.10
2023-01-09T04:05:57.074Z,6.10
2023-01-09T04:08:24.069Z,6.20
2023-01-09T04:10:54.022Z,6.10
2023-01-09T04:13:20.888Z,6.10
2023-01-09T04:15:47.782Z,6.00
2023-01-09T04:18:15.489Z,6.10
2023-01-09T04:20:42.527Z,6.10
2023-01-09T04:23:09.451Z,6.00
2023-01-09T04:25:36.447Z,5.90
2023-01-09T04:28:03.565Z,6.00
2023-01-09T04:30:30.708Z,5.90
2023-01-09T04:32:57.536Z,5.80
2023-01-09T04:35:24.482Z,5.90
2023-01-09T04:37:51.495Z,5.90
2023-01-09T04:40:18.823Z,5.90
2023-01-09T04:42:46.193Z,5.90
2023-01-09T04:45:15.443Z,5.90
2023-01-09T04:47:42.797Z,5.90
2023-01-09T04:50:13.260Z,5.90
2023-01-09T04:52:40.344Z,5.90
2023-01-09T04:55:08.369Z,5.90
2023-01-09T04:57:36.018Z,5.90
2023-01-09T05:00:04.980Z,5.90
2023-01-09T05:02:31.897Z,5.80
2023-01-09T05:04:58.729Z,5.80
2023-01-09T05:07:25.614Z,5.90
2023-01-09T05:09:52.724Z,5.90
2023-01-09T05:12:19.798Z,5.80
2023-01-09T05:14:47.192Z,5.80
2023-01-09T05:17:14.071Z,5.80
2023-01-09T05:19:41.177Z,5.80
2023-01-09T05:22:08.343Z,5.90
2023-01-09T05:24:35.296Z,5.90
2023-01-09T05:27:03.171Z,5.90
2023-01-09T05:29:30.448Z,6.00
2023-01-09T05:31:58.976Z,6.00
2023-01-09T05:34:25.687Z,6.00
2023-01-09T05:36:52.390Z,6.10
2023-01-09T05:39:19.097Z,6.10
2023-01-09T05:41:45.805Z,6.20
2023-01-09T05:44:12.928Z,6.20
2023-01-09T05:46:39.620Z,6.30
2023-01-09T05:49:06.422Z,6.30
2023-01-09T05:51:33.064Z,6.40
2023-01-09T05:54:00.121Z,6.50
2023-01-09T05:56:26.779Z,6.50
2023-01-09T05:58:53.840Z,6.60
2023-01-09T06:01:22.815Z,6.50
2023-01-09T06:03:50.496Z,6.60
2023-01-09T06:06:17.200Z,6.60
2023-01-09T06:08:43.790Z,6.60
2023-01-09T06:11:10.872Z,6.70
2023-01-09T06:13:37.491Z,6.60
2023-01-09T06:16:04.413Z,6.70
2023-01-09T06:18:31.050Z,6.70
2023-01-09T06:20:57.652Z,6.70
2023-01-09T06:23:24.271Z,6.70
2023-01-09T06:25:51.272Z,6.70
2023-01-09T06:28:17.997Z,6.80
2023-01-09T06:30:44.614Z,6.70
2023-01-09T06:33:11.252Z,6.70
2023-01-09T06:35:37.901Z,6.70
2023-01-09T06:38:05.220Z,6.70
2023-01-09T06:40:31.900Z,6.70
2023-01-09T06:42:58.562Z,6.80
2023-01-09T06:45:25.672Z,6.90
2023-01-09T06:47:52.455Z,6.80
2023-01-09T06:50:19.131Z,6.90
2023-01-09T06:52:46.181Z,6.90
2023-01-09T06:55:12.777Z,6.90
2023-01-09T06:57:40.001Z,6.90
2023-01-09T07:00:07.284Z,7.00
2023-01-09T07:02:34.331Z,7.00
2023-01-09T07:05:01.101Z,7.00
2023-01-09T07:07:27.811Z,7.00
2023-01-09T07:09:54.529Z,7.10
2023-01-09T07:12:21.603Z,7.00
2023-01-09T07:14:48.261Z,7.10
2023-01-09T07:17:15.039Z,7.10
2023-01-09T07:19:42.253Z,7.20
2023-01-09T07:22:09.645Z,7.20
2023-01-09T07:24:36.302Z,7.20
2023-01-09T07:27:03.792Z,7.30
2023-01-09T07:29:30.916Z,7.20
2023-01-09T07:31:57.723Z,7.20
2023-01-09T07:34:25.685Z,7.20
2023-01-09T07:36:52.745Z,7.20
2023-01-09T07:39:19.476Z,7.20
2023-01-09T07:41:46.372Z,7.30
2023-01-09T07:44:13.536Z,7.30
2023-01-09T07:46:40.351Z,7.30
2023-01-09T07:49:07.199Z,7.40
2023-01-09T07:51:34.312Z,7.30
2023-01-09T07:54:00.960Z,7.40
2023-01-09T07:56:27.629Z,7.40
2023-01-09T07:58:54.238Z,7.40
2023-01-09T08:01:20.986Z,7.40
2023-01-09T08:03:47.722Z,7.40
2023-01-09T08:06:14.336Z,7.40
2023-01-09T08:08:41.141Z,7.30
2023-01-09T08:11:07.817Z,7.30
2023-01-09T08:13:35.005Z,7.30
2023-01-09T08:16:01.795Z,7.30
2023-01-09T08:18:28.498Z,7.30
2023-01-09T08:20:55.171Z,7.30
2023-01-09T08:23:21.857Z,7.30
2023-01-09T08:25:48.802Z,7.30
2023-01-09T08:28:15.565Z,7.30
2023-01-09T08:30:42.205Z,7.30
2023-01-09T08:33:09.113Z,7.30
2023-01-09T08:35:36.992Z,7.30
2023-01-09T08:38:04.132Z,7.30
2023-01-09T08:40:31.111Z,7.30
2023-01-09T08:43:16.459Z,7.30
2023-01-09T08:46:02.847Z,7.30
2023-01-09T08:48:29.529Z,7.30
2023-01-09T08:50:56.151Z,7.30
2023-01-09T08:53:22.780Z,7.40
2023-01-09T08:55:49.866Z,7.40
2023-01-09T08:58:16.761Z,7.40
2023-01-09T09:00:43.423Z,7.50
2023-01-09T09:03:12.247Z,7.60
2023-01-09T09:05:39.190Z,7.60
2023-01-09T09:08:07.102Z,7.70
2023-01-09T09:10:34.166Z,7.70
2023-01-09T09:13:01.892Z,7.70
2023-01-09T09:15:30.041Z,7.70
2023-01-09T09:18:02.109Z,7.80
2023-01-09T09:20:39.660Z,7.70
2023-01-09T09:23:08.324Z,7.80
2023-01-09T09:25:38.374Z,7.80
2023-01-09T09:28:06.465Z,7.80
2023-01-09T09:30:34.261Z,7.90
2023-01-09T09:33:04.980Z,7.90
2023-01-09T09:35:33.902Z,7.80
2023-01-09T09:38:05.149Z,7.80
2023-01-09T09:40:57.099Z,7.90
2023-01-09T09:44:01.806Z,7.90
2023-01-09T09:46:55.134Z,7.90
2023-01-09T09:49:28.255Z,7.90
2023-01-09T09:52:08.518Z,7.90
2023-01-09T09:54:42.357Z,8.00
2023-01-09T09:57:16.374Z,8.00
2023-01-09T09:59:44.060Z,8.00
2023-01-09T10:02:19.862Z,7.90
2023-01-09T10:04:54.408Z,8.00
2023-01-09T10:07:29.841Z,8.00
2023-01-09T10:10:01.330Z,8.00
2023-01-09T10:12:53.119Z,8.00
2023-01-09T10:15:38.633Z,8.00
2023-01-09T10:18:33.195Z,8.00
2023-01-09T10:21:20.566Z,8.00
2023-01-09T10:23:58.929Z,8.00
2023-01-09T10:26:38.125Z,8.00
2023-01-09T10:29:31.371Z,8.00
2023-01-09T10:32:19.679Z,8.00
2023-01-09T10:35:01.654Z,8.00
2023-01-09T10:37:36.973Z,8.00
2023-01-09T10:40:16.967Z,8.10
2023-01-09T10:43:06.297Z,8.10
2023-01-09T10:45:40.325Z,8.10
2023-01-09T10:48:21.013Z,8.10
2023-01-09T10:50:50.278Z,8.20
2023-01-09T10:53:35.260Z,8.20
2023-01-09T10:56:12.223Z,8.20
2023-01-09T10:58:39.141Z,8.20
2023-01-09T11:01:06.448Z,8.30
2023-01-09T11:03:33.541Z,8.30
2023-01-09T11:06:01.875Z,8.30
2023-01-09T11:08:31.252Z,8.30
2023-01-09T11:11:00.923Z,8.30
2023-01-09T11:13:33.317Z,8.30
2023-01-09T11:16:20.560Z,8.30
2023-01-09T11:18:57.947Z,8.30
2023-01-09T11:21:27.612Z,8.40
2023-01-09T11:23:55.582Z,8.40
2023-01-09T11:26:27.897Z,8.50
2023-01-09T11:29:12.130Z,8.60
2023-01-09T11:31:41.547Z,8.50
2023-01-09T11:34:19.491Z,8.60
2023-01-09T11:36:47.784Z,8.60
2023-01-09T11:39:35.339Z,8.50
2023-01-09T11:42:04.728Z,8.50
2023-01-09T11:44:33.008Z,8.50
2023-01-09T11:46:59.957Z,8.60
2023-01-09T11:49:31.793Z,8.70
2023-01-09T11:52:17.792Z,8.70
2023-01-09T11:54:51.925Z,8.60
2023-01-09T11:57:19.770Z,8.70
2023-01-09T11:59:47.152Z,8.60
2023-01-09T12:02:17.514Z,8.60
2023-01-09T12:04:50.924Z,8.60
2023-01-09T12:07:21.055Z,8.50
2023-01-09T12:09:57.165Z,8.60
2023-01-09T12:12:39.511Z,8.60
2023-01-09T12:15:19.450Z,8.50
2023-01-09T12:17:59.819Z,8.60
2023-01-09T12:20:32.583Z,8.50
2023-01-09T12:23:02.528Z,8.50
2023-01-09T12:25:35.303Z,8.50
2023-01-09T12:28:15.766Z,8.60
2023-01-09T12:31:20.245Z,8.60
2023-01-09T12:34:06.743Z,8.60
2023-01-09T12:36:47.553Z,8.60
2023-01-09T12:39:32.993Z,8.70
2023-01-09T12:42:25.671Z,8.60
2023-01-09T12:45:01.695Z,8.60
2023-01-09T12:47:41.360Z,8.60
2023-01-09T12:50:34.205Z,8.60
2023-01-09T12:53:14.010Z,8.70
2023-01-09T12:55:45.085Z,8.70
2023-01-09T12:58:43.030Z,8.70
2023-01-09T13:01:18.310Z,8.80
2023-01-09T13:03:54.708Z,8.80
2023-01-09T13:06:24.890Z,8.90
2023-01-09T13:09:17.399Z,9.00
2023-01-09T13:11:54.557Z,9.00
2023-01-09T13:15:20.295Z,9.00
2023-01-09T13:17:51.715Z,8.90
2023-01-09T13:20:28.308Z,8.90
2023-01-09T13:22:56.187Z,9.00
2023-01-09T13:25:35.476Z,8.90
2023-01-09T13:28:19.159Z,9.00
2023-01-09T13:30:58.725Z,9.10
2023-01-09T13:33:34.862Z,9.00
2023-01-09T13:36:05.704Z,9.00
2023-01-09T13:38:35.326Z,9.00
2023-01-09T13:41:33.566Z,9.00
2023-01-09T13:44:06.407Z,8.90
2023-01-09T13:46:46.606Z,8.90
2023-01-09T13:49:35.310Z,8.90
2023-01-09T13:52:25.831Z,9.00
2023-01-09T13:54:55.753Z,8.90
2023-01-09T13:57:25.839Z,8.90
2023-01-09T13:59:52.739Z,8.90
2023-01-09T14:02:38.473Z,8.90
2023-01-09T14:05:09.999Z,8.90
2023-01-09T14:07:39.360Z,8.80
2023-01-09T14:10:21.684Z,8.80
2023-01-09T14:12:49.888Z,8.80
2023-01-09T14:15:39.854Z,8.70
2023-01-09T14:18:28.335Z,8.70
2023-01-09T14:21:04.724Z,8.70
2023-01-09T14:23:52.615Z,8.70
2023-01-09T14:26:41.807Z,8.70
2023-01-09T14:29:41.415Z,8.60
2023-01-09T14:32:23.713Z,8.60
2023-01-09T14:34:52.977Z,8.60
2023-01-09T14:37:20.255Z,8.60
2023-01-09T14:39:49.434Z,8.60
2023-01-09T14:42:22.776Z,8.50
2023-01-09T14:44:55.543Z,8.50
2023-01-09T14:47:31.916Z,8.50
2023-01-09T14:50:05.948Z,8.40
2023-01-09T14:52:39.963Z,8.40
2023-01-09T14:55:27.465Z,8.30
2023-01-09T14:57:58.111Z,8.30
2023-01-09T15:00:25.127Z,8.30
2023-01-09T15:02:53.501Z,8.30
2023-01-09T15:05:26.094Z,8.30
2023-01-09T15:07:57.151Z,8.30
2023-01-09T15:10:29.312Z,8.30
2023-01-09T15:12:58.772Z,8.30
2023-01-09T15:15:26.744Z,8.30
2023-01-09T15:18:07.947Z,8.30
2023-01-09T15:20:35.070Z,8.30
2023-01-09T15:23:04.504Z,8.20
2023-01-09T15:25:38.876Z,8.20
2023-01-09T15:28:32.033Z,8.20
2023-01-09T15:31:18.276Z,8.20
2023-01-09T15:33:47.331Z,8.20
2023-01-09T15:36:24.924Z,8.30
2023-01-09T15:38:53.078Z,8.20
2023-01-09T15:41:44.875Z,8.30
2023-01-09T15:44:19.290Z,8.20
2023-01-09T15:46:50.065Z,8.20
2023-01-09T15:49:17.953Z,8.20
2023-01-09T15:51:47.252Z,8.10
2023-01-09T15:54:16.297Z,8.10
2023-01-09T15:56:45.634Z,8.10
2023-01-09T15:59:28.372Z,8.10
2023-01-09T16:02:23.112Z,8.10
2023-01-09T16:04:52.739Z,8.10
2023-01-09T16:07:21.129Z,8.10
2023-01-09T16:09:52.942Z,8.00
2023-01-09T16:12:27.013Z,8.00
2023-01-09T16:14:59.546Z,8.00
2023-01-09T16:17:29.806Z,8.00
2023-01-09T16:20:24.834Z,8.00
2023-01-09T16:22:56.581Z,8.00
2023-01-09T16:25:32.593Z,7.90
2023-01-09T16:31:09.674Z,7.80
2023-01-09T16:33:44.172Z,7.90
2023-01-09T16:36:13.959Z,7.90
2023-01-09T16:38:44.287Z,8.00
2023-01-09T16:41:45.467Z,7.90
2023-01-09T16:44:12.368Z,7.90
2023-01-09T16:46:44.114Z,8.00
2023-01-09T16:49:19.545Z,7.90
2023-01-09T16:51:47.920Z,7.90
2023-01-09T16:54:15.607Z,7.90
2023-01-09T16:56:51.170Z,7.90
2023-01-09T16:59:28.198Z,7.80
2023-01-09T17:01:55.584Z,7.80
2023-01-09T17:04:24.019Z,7.70
2023-01-09T17:06:51.553Z,7.70
2023-01-09T17:09:20.147Z,7.60
2023-01-09T17:11:47.088Z,7.60
2023-01-09T17:14:14.577Z,7.50
2023-01-09T17:16:48.248Z,7.50
2023-01-09T17:19:20.750Z,7.50
2023-01-09T17:21:47.872Z,7.50
2023-01-09T17:24:34.217Z,7.40
2023-01-09T17:27:20.831Z,7.30
2023-01-09T17:29:48.482Z,7.30
2023-01-09T17:34:44.236Z,7.20
2023-01-09T17:37:19.630Z,7.00
2023-01-09T17:39:48.841Z,7.00
2023-01-09T17:42:17.773Z,6.90
2023-01-09T17:44:44.742Z,6.90
2023-01-09T17:47:17.860Z,6.80
2023-01-09T17:49:45.397Z,6.80
2023-01-09T17:52:12.722Z,6.70
2023-01-09T17:54:40.466Z,6.80
2023-01-09T17:57:07.792Z,6.80
2023-01-09T17:59:35.336Z,6.60
2023-01-09T18:02:02.320Z,6.60
2023-01-09T18:04:29.402Z,6.60
2023-01-09T18:06:56.256Z,6.60
2023-01-09T18:09:23.537Z,6.50
2023-01-09T18:11:50.348Z,6.60
2023-01-09T18:14:17.645Z,6.60
2023-01-09T18:16:45.339Z,6.60
2023-01-09T18:19:12.347Z,6.70
2023-01-09T18:21:39.272Z,6.60
2023-01-09T18:24:06.715Z,6.70
2023-01-09T18:26:34.043Z,6.70
2023-01-09T18:29:01.228Z,6.70
2023-01-09T18:31:29.944Z,6.70
2023-01-09T18:34:02.028Z,6.70
2023-01-09T18:36:31.840Z,6.70
2023-01-09T18:39:00.889Z,6.70
2023-01-09T18:41:28.381Z,6.70
2023-01-09T18:44:01.071Z,6.80
2023-01-09T18:46:31.975Z,6.80
2023-01-09T18:49:04.440Z,6.80
2023-01-09T18:51:33.873Z,6.80
2023-01-09T18:54:00.925Z,6.80
2023-01-09T18:56:27.895Z,6.90
2023-01-09T18:58:57.207Z,6.80
2023-01-09T19:01:24.752Z,6.90
2023-01-09T19:03:51.896Z,6.80
2023-01-09T19:06:19.347Z,6.90
2023-01-09T19:08:46.330Z,6.90
2023-01-09T19:11:13.526Z,6.90
2023-01-09T19:13:40.511Z,6.80
2023-01-09T19:16:08.785Z,6.90
2023-01-09T19:18:40.738Z,6.90
2023-01-09T19:21:16.904Z,6.90
2023-01-09T19:23:45.200Z,7.00
2023-01-09T19:26:21.534Z,7.00
2023-01-09T19:28:48.483Z,7.00
2023-01-09T19:31:16.513Z,7.00
2023-01-09T19:33:44.982Z,7.00
2023-01-09T19:36:12.366Z,7.10
2023-01-09T19:38:39.513Z,7.10
2023-01-09T19:41:09.082Z,7.10
2023-01-09T19:43:36.701Z,7.20
2023-01-09T19:46:10.540Z,7.10
2023-01-09T19:48:38.160Z,7.10
2023-01-09T19:51:07.328Z,7.10
2023-01-09T19:53:35.358Z,7.00
2023-01-09T19:56:20.630Z,6.90
2023-01-09T19:58:56.312Z,6.90
2023-01-09T20:01:26.328Z,6.90
2023-01-09T20:03:54.805Z,6.90
2023-01-09T20:06:24.850Z,6.90
2023-01-09T20:08:56.735Z,6.80
2023-01-09T20:11:25.258Z,6.90
2023-01-09T20:13:52.230Z,6.80
2023-01-09T20:16:31.131Z,6.90
2023-01-09T20:19:00.159Z,6.90
2023-01-09T20:21:28.343Z,6.90
2023-01-09T20:23:57.396Z,7.00
2023-01-09T20:26:25.868Z,7.00
2023-01-09T20:28:53.626Z,7.00
2023-01-09T20:31:22.237Z,7.00
2023-01-09T20:33:50.834Z,7.00
2023-01-09T20:36:19.550Z,7.00
2023-01-09T20:38:46.484Z,7.00
2023-01-09T20:41:24.533Z,7.10
2023-01-09T20:43:55.463Z,7.00
2023-01-09T20:46:25.015Z,7.00
2023-01-09T20:48:52.234Z,7.00
2023-01-09T20:51:19.622Z,7.00
2023-01-09T20:53:51.198Z,7.00
2023-01-09T20:56:18.088Z,7.10
2023-01-09T20:58:45.733Z,7.10
2023-01-09T21:01:14.097Z,7.10
2023-01-09T21:03:42.019Z,7.00
2023-01-09T21:06:11.382Z,7.00
2023-01-09T21:08:39.112Z,6.90
2023-01-09T21:11:06.465Z,7.00
2023-01-09T21:13:33.325Z,7.00
2023-01-09T21:16:02.229Z,7.00
2023-01-09T21:18:29.167Z,7.00
2023-01-09T21:20:56.062Z,7.00
2023-01-09T21:23:23.390Z,7.00
2023-01-09T21:25:50.236Z,7.00
2023-01-09T21:28:18.979Z,7.00
2023-01-09T21:30:49.605Z,6.90
2023-01-09T21:33:23.589Z,6.90
2023-01-09T21:35:55.948Z,6.80
2023-01-09T21:38:25.105Z,6.80
2023-01-09T21:40:53.827Z,6.80
2023-01-09T21:43:57.172Z,6.80
2023-01-09T21:46:42.447Z,6.70
2023-01-09T21:49:09.424Z,6.70
2023-01-09T21:51:38.981Z,6.70
2023-01-09T21:54:06.256Z,6.70
2023-01-09T21:56:33.166Z,6.60
2023-01-09T21:59:00.095Z,6.60
2023-01-09T22:01:27.251Z,6.60
2023-01-09T22:03:54.972Z,6.50
2023-01-09T22:06:22.441Z,6.50
2023-01-09T22:08:49.620Z,6.40
2023-01-09T22:11:16.701Z,6.40
2023-01-09T22:13:48.176Z,6.30
2023-01-09T22:16:15.104Z,6.20
2023-01-09T22:18:42.047Z,6.20
2023-01-09T22:21:08.952Z,6.20
2023-01-09T22:23:35.944Z,6.20
2023-01-09T22:26:11.792Z,6.10
2023-01-09T22:28:39.010Z,6.10
2023-01-09T22:31:10.512Z,6.00
2023-01-09T22:33:37.473Z,6.00
2023-01-09T22:36:10.368Z,6.00
2023-01-09T22:38:37.941Z,6.00
2023-01-09T22:41:05.727Z,5.90
2023-01-09T22:43:32.713Z,5.90
2023-01-09T22:46:04.727Z,5.80
2023-01-09T22:48:32.778Z,5.80
2023-01-09T22:51:04.893Z,5.80
2023-01-09T22:53:32.241Z,5.80
2023-01-09T22:56:01.624Z,5.80
2023-01-09T22:58:32.911Z,5.80
2023-01-09T23:00:59.753Z,5.70
2023-01-09T23:03:27.504Z,5.70
2023-01-09T23:06:11.976Z,5.60
2023-01-09T23:08:40.039Z,5.60
2023-01-09T23:11:10.018Z,5.50
2023-01-09T23:13:38.213Z,5.50
2023-01-09T23:16:05.658Z,5.50
2023-01-09T23:18:32.884Z,5.50
2023-01-09T23:21:03.477Z,5.50
2023-01-09T23:23:32.223Z,5.40
2023-01-09T23:26:02.668Z,5.40
2023-01-09T23:28:30.528Z,5.40
2023-01-09T23:30:57.774Z,5.30
2023-01-09T23:33:25.121Z,5.40
2023-01-09T23:35:52.019Z,5.30
2023-01-09T23:38:20.559Z,5.20
2023-01-09T23:40:47.497Z,5.20
2023-01-09T23:43:15.195Z,5.20
2023-01-09T23:45:44.522Z,5.10
2023-01-09T23:48:14.477Z,5.10
2023-01-09T23:50:51.959Z,5.00
2023-01-09T23:53:21.049Z,4.90
2023-01-09T23:55:48.930Z,5.00
2023-01-09T23:58:16.692Z,5.00
